createdAt,value
2022-07-26T00:00:32.413Z,23.92
2022-07-26T00:01:35.948Z,23.92
2022-07-26T00:02:21.302Z,23.92
2022-07-26T00:03:21.222Z,23.96
2022-07-26T00:04:21.226Z,23.96
2022-07-26T00:05:21.221Z,23.99
2022-07-26T00:06:21.242Z,24
2022-07-26T00:07:21.239Z,24
2022-07-26T00:08:21.226Z,24.03
2022-07-26T00:09:21.242Z,24.03
2022-07-26T00:10:21.220Z,24.02
2022-07-26T00:11:21.227Z,24.03
2022-07-26T00:12:21.241Z,24.04
2022-07-26T00:13:21.229Z,24.04
2022-07-26T00:14:21.227Z,24
2022-07-26T00:15:21.243Z,23.97
2022-07-26T00:16:21.283Z,23.97
2022-07-26T00:17:21.250Z,23.98
2022-07-26T00:18:21.226Z,23.93
2022-07-26T00:19:21.240Z,23.9
2022-07-26T00:20:21.227Z,23.85
2022-07-26T00:21:21.222Z,23.83
2022-07-26T00:22:21.251Z,23.81
2022-07-26T00:23:21.230Z,23.79
2022-07-26T00:24:21.256Z,23.75
2022-07-26T00:25:21.217Z,23.75
2022-07-26T00:26:21.220Z,23.72
2022-07-26T00:27:54.952Z,23.72
2022-07-26T00:28:28.534Z,23.64
2022-07-26T00:29:28.277Z,23.64
2022-07-26T00:30:21.219Z,23.53
2022-07-26T00:31:21.266Z,23.53
2022-07-26T00:32:22.392Z,23.45
2022-07-26T00:33:21.238Z,23.45
2022-07-26T00:34:21.231Z,23.45
2022-07-26T00:35:21.223Z,23.43
2022-07-26T00:36:29.181Z,23.42
2022-07-26T00:37:21.294Z,23.39
2022-07-26T00:38:21.236Z,23.39
2022-07-26T00:39:21.256Z,23.31
2022-07-26T00:40:28.199Z,23.31
2022-07-26T00:41:21.219Z,23.29
2022-07-26T00:42:21.224Z,23.17
2022-07-26T00:43:21.232Z,23.14
2022-07-26T00:44:21.223Z,23.12
2022-07-26T00:45:43.909Z,23.12
2022-07-26T00:46:21.430Z,23.06
2022-07-26T00:47:21.233Z,23.06
2022-07-26T00:48:36.231Z,23.02
2022-07-26T00:49:21.301Z,23
2022-07-26T00:50:21.221Z,23
2022-07-26T00:51:21.224Z,22.9
2022-07-26T00:52:21.228Z,22.83
2022-07-26T00:53:21.243Z,22.83
2022-07-26T00:54:21.236Z,22.78
2022-07-26T00:55:21.225Z,22.74
2022-07-26T00:56:21.358Z,22.73
2022-07-26T00:57:21.231Z,22.65
2022-07-26T00:58:21.267Z,22.61
2022-07-26T00:59:24.977Z,22.61
2022-07-26T01:00:32.250Z,22.61
2022-07-26T01:01:21.334Z,22.71
2022-07-26T01:02:21.268Z,22.61
2022-07-26T01:03:21.251Z,22.5
2022-07-26T01:04:21.221Z,22.34
2022-07-26T01:05:36.332Z,22.34
2022-07-26T01:06:23.983Z,22.28
2022-07-26T01:07:21.225Z,22.28
2022-07-26T01:08:21.235Z,22.18
2022-07-26T01:09:21.241Z,22.14
2022-07-26T01:10:21.225Z,22.13
2022-07-26T01:11:21.219Z,22.1
2022-07-26T01:12:26.280Z,22.05
2022-07-26T01:13:21.250Z,22
2022-07-26T01:14:34.612Z,22.01
2022-07-26T01:15:21.236Z,22.02
2022-07-26T01:16:27.719Z,22.02
2022-07-26T01:17:21.222Z,21.88
2022-07-26T01:18:21.258Z,21.82
2022-07-26T01:19:21.234Z,21.82
2022-07-26T01:20:21.231Z,21.78
2022-07-26T01:21:21.228Z,21.78
2022-07-26T01:22:29.369Z,21.77
2022-07-26T01:23:21.254Z,21.73
2022-07-26T01:24:21.256Z,21.71
2022-07-26T01:25:21.234Z,21.71
2022-07-26T01:26:21.242Z,21.71
2022-07-26T01:27:21.269Z,21.64
2022-07-26T01:28:21.261Z,21.6
2022-07-26T01:29:21.240Z,21.6
2022-07-26T01:30:25.121Z,21.55
2022-07-26T01:31:45.835Z,21.55
2022-07-26T01:32:21.234Z,21.56
2022-07-26T01:33:21.257Z,21.5
2022-07-26T01:34:21.243Z,21.5
2022-07-26T01:35:23.200Z,21.5
2022-07-26T01:36:21.236Z,21.48
2022-07-26T01:37:21.244Z,21.46
2022-07-26T01:38:21.258Z,21.35
2022-07-26T01:39:21.257Z,21.37
2022-07-26T01:40:21.270Z,21.31
2022-07-26T01:41:22.773Z,21.26
2022-07-26T01:42:21.228Z,21.26
2022-07-26T01:43:21.325Z,21.25
2022-07-26T01:44:21.223Z,21.22
2022-07-26T01:45:21.225Z,21.22
2022-07-26T01:46:21.290Z,21.22
2022-07-26T01:47:21.232Z,21.22
2022-07-26T01:48:21.230Z,21.3
2022-07-26T01:49:21.318Z,21.3
2022-07-26T01:50:21.233Z,21.17
2022-07-26T01:51:21.231Z,21.17
2022-07-26T01:52:21.245Z,21.18
2022-07-26T01:53:21.261Z,21.17
2022-07-26T01:54:22.458Z,21.13
2022-07-26T01:55:24.814Z,21.13
2022-07-26T01:56:21.239Z,21.11
2022-07-26T01:57:21.224Z,21.11
2022-07-26T01:58:21.244Z,21.03
2022-07-26T01:59:21.223Z,21.03
2022-07-26T02:00:21.222Z,21.04
2022-07-26T02:01:38.029Z,21.06
2022-07-26T02:02:21.345Z,21.06
2022-07-26T02:03:34.428Z,20.99
2022-07-26T02:04:21.226Z,20.96
2022-07-26T02:05:21.228Z,20.96
2022-07-26T02:06:21.235Z,20.95
2022-07-26T02:07:21.228Z,20.95
2022-07-26T02:08:21.296Z,20.9
2022-07-26T02:09:21.257Z,20.85
2022-07-26T02:10:21.225Z,20.85
2022-07-26T02:11:21.225Z,20.85
2022-07-26T02:12:21.225Z,20.83
2022-07-26T02:13:21.233Z,20.88
2022-07-26T02:14:31.992Z,20.96
2022-07-26T02:15:21.226Z,20.96
2022-07-26T02:16:21.299Z,21.05
2022-07-26T02:17:21.222Z,21.05
2022-07-26T02:18:21.230Z,21.05
2022-07-26T02:19:21.232Z,21.03
2022-07-26T02:20:21.255Z,21.03
2022-07-26T02:21:21.227Z,21.03
2022-07-26T02:22:30.834Z,21.14
2022-07-26T02:23:21.232Z,21.24
2022-07-26T02:24:21.249Z,21.2
2022-07-26T02:25:21.227Z,21.19
2022-07-26T02:26:38.140Z,21.27
2022-07-26T02:27:21.237Z,21.17
2022-07-26T02:28:21.233Z,21.15
2022-07-26T02:29:21.234Z,21.15
2022-07-26T02:30:21.226Z,21.19
2022-07-26T02:31:21.351Z,21.19
2022-07-26T02:32:21.232Z,21.17
2022-07-26T02:33:21.229Z,21.17
2022-07-26T02:34:21.242Z,21.12
2022-07-26T02:35:21.224Z,21.08
2022-07-26T02:36:21.229Z,21.08
2022-07-26T02:37:43.700Z,21.05
2022-07-26T02:38:21.225Z,21.07
2022-07-26T02:39:21.248Z,21.07
2022-07-26T02:40:21.283Z,21.06
2022-07-26T02:41:21.247Z,21.04
2022-07-26T02:42:28.768Z,21.01
2022-07-26T02:43:21.225Z,21
2022-07-26T02:44:21.252Z,20.96
2022-07-26T02:46:01.922Z,20.98
2022-07-26T02:46:21.268Z,20.98
2022-07-26T02:47:21.225Z,20.98
2022-07-26T02:48:21.226Z,21.02
2022-07-26T02:49:31.082Z,21.02
2022-07-26T02:50:21.233Z,21.02
2022-07-26T02:51:28.736Z,21
2022-07-26T02:52:21.250Z,20.97
2022-07-26T02:53:21.238Z,20.97
2022-07-26T02:54:21.257Z,20.95
2022-07-26T02:55:21.253Z,20.95
2022-07-26T02:56:21.227Z,20.93
2022-07-26T02:57:21.223Z,20.96
2022-07-26T02:58:27.009Z,20.96
2022-07-26T02:59:21.224Z,20.98
2022-07-26T03:00:21.231Z,20.93
2022-07-26T03:01:21.259Z,20.92
2022-07-26T03:02:21.344Z,20.93
2022-07-26T03:03:21.252Z,20.9
2022-07-26T03:04:21.229Z,20.91
2022-07-26T03:05:31.999Z,20.89
2022-07-26T03:06:21.227Z,20.88
2022-07-26T03:07:21.226Z,20.88
2022-07-26T03:08:21.236Z,20.87
2022-07-26T03:09:21.250Z,20.87
2022-07-26T03:10:21.242Z,20.74
2022-07-26T03:11:21.224Z,20.68
2022-07-26T03:12:21.235Z,20.68
2022-07-26T03:13:21.238Z,20.68
2022-07-26T03:14:21.223Z,20.76
2022-07-26T03:15:21.251Z,20.67
2022-07-26T03:16:24.791Z,20.6
2022-07-26T03:17:21.226Z,20.54
2022-07-26T03:18:21.244Z,20.48
2022-07-26T03:19:54.721Z,20.5
2022-07-26T03:20:21.234Z,20.5
2022-07-26T03:21:21.240Z,20.48
2022-07-26T03:22:21.224Z,20.46
2022-07-26T03:23:25.832Z,20.45
2022-07-26T03:24:21.235Z,20.46
2022-07-26T03:25:21.226Z,20.51
2022-07-26T03:26:21.232Z,20.51
2022-07-26T03:27:21.219Z,20.49
2022-07-26T03:28:21.255Z,20.45
2022-07-26T03:29:21.236Z,20.41
2022-07-26T03:30:24.565Z,20.41
2022-07-26T03:31:21.312Z,20.41
2022-07-26T03:32:23.167Z,20.42
2022-07-26T03:33:21.219Z,20.4
2022-07-26T03:34:21.220Z,20.4
2022-07-26T03:35:21.226Z,20.45
2022-07-26T03:36:21.228Z,20.45
2022-07-26T03:37:21.226Z,20.43
2022-07-26T03:38:21.229Z,20.39
2022-07-26T03:39:21.237Z,20.35
2022-07-26T03:40:21.223Z,20.35
2022-07-26T03:41:21.239Z,20.38
2022-07-26T03:42:21.219Z,20.39
2022-07-26T03:43:22.946Z,20.41
2022-07-26T03:44:21.232Z,20.45
2022-07-26T03:45:21.229Z,20.48
2022-07-26T03:46:21.305Z,20.48
2022-07-26T03:47:21.227Z,20.5
2022-07-26T03:48:21.228Z,20.54
2022-07-26T03:49:21.263Z,20.65
2022-07-26T03:50:21.227Z,20.64
2022-07-26T03:51:21.247Z,20.64
2022-07-26T03:52:21.242Z,20.64
2022-07-26T03:53:21.221Z,20.61
2022-07-26T03:54:21.242Z,20.61
2022-07-26T03:55:21.220Z,20.54
2022-07-26T03:56:45.622Z,20.54
2022-07-26T03:58:05.202Z,20.51
2022-07-26T03:58:21.221Z,20.51
2022-07-26T03:59:21.218Z,20.38
2022-07-26T04:00:21.225Z,20.38
2022-07-26T04:01:21.303Z,20.38
2022-07-26T04:02:47.761Z,20.42
2022-07-26T04:03:21.226Z,20.42
2022-07-26T04:04:25.179Z,20.4
2022-07-26T04:05:23.558Z,20.4
2022-07-26T04:06:34.823Z,20.41
2022-07-26T04:07:21.224Z,20.41
2022-07-26T04:08:21.223Z,20.44
2022-07-26T04:09:21.243Z,20.45
2022-07-26T04:10:21.235Z,20.45
2022-07-26T04:11:21.239Z,20.39
2022-07-26T04:12:27.995Z,20.37
2022-07-26T04:13:23.995Z,20.37
2022-07-26T04:14:21.215Z,20.39
2022-07-26T04:15:21.245Z,20.38
2022-07-26T04:16:21.301Z,20.38
2022-07-26T04:17:43.927Z,20.38
2022-07-26T04:18:47.994Z,20.47
2022-07-26T04:19:41.816Z,20.47
2022-07-26T04:20:37.151Z,20.47
2022-07-26T04:21:21.586Z,20.46
2022-07-26T04:22:21.220Z,20.46
2022-07-26T04:23:21.220Z,20.4
2022-07-26T04:24:21.243Z,20.4
2022-07-26T04:25:21.223Z,20.4
2022-07-26T04:26:21.239Z,20.45
2022-07-26T04:27:33.843Z,20.45
2022-07-26T04:28:21.227Z,20.43
2022-07-26T04:29:21.223Z,20.4
2022-07-26T04:30:21.226Z,20.37
2022-07-26T04:31:21.317Z,20.43
2022-07-26T04:32:21.231Z,20.44
2022-07-26T04:33:21.225Z,20.44
2022-07-26T04:34:21.220Z,20.45
2022-07-26T04:35:21.221Z,20.39
2022-07-26T04:36:21.264Z,20.36
2022-07-26T04:37:21.221Z,20.35
2022-07-26T04:38:21.228Z,20.35
2022-07-26T04:39:21.246Z,20.35
2022-07-26T04:40:21.665Z,20.37
2022-07-26T04:41:21.240Z,20.37
2022-07-26T04:42:21.228Z,20.44
2022-07-26T04:43:21.219Z,20.48
2022-07-26T04:44:21.228Z,20.48
2022-07-26T04:45:21.224Z,20.43
2022-07-26T04:46:35.079Z,20.46
2022-07-26T04:47:21.229Z,20.46
2022-07-26T04:48:21.334Z,20.42
2022-07-26T04:49:28.933Z,20.4
2022-07-26T04:50:21.221Z,20.41
2022-07-26T04:51:21.239Z,20.43
2022-07-26T04:52:21.226Z,20.43
2022-07-26T04:53:21.221Z,20.42
2022-07-26T04:54:21.233Z,20.43
2022-07-26T04:55:21.226Z,20.43
2022-07-26T04:56:21.227Z,20.43
2022-07-26T04:57:30.264Z,20.43
2022-07-26T04:58:44.776Z,20.46
2022-07-26T04:59:21.963Z,20.5
2022-07-26T05:00:22.784Z,20.5
2022-07-26T05:01:21.291Z,20.6
2022-07-26T05:02:21.338Z,20.66
2022-07-26T05:03:21.233Z,20.69
2022-07-26T05:04:39.660Z,20.72
2022-07-26T05:05:21.224Z,20.74
2022-07-26T05:06:21.237Z,20.77
2022-07-26T05:07:21.225Z,20.78
2022-07-26T05:08:25.683Z,20.78
2022-07-26T05:09:21.251Z,20.82
2022-07-26T05:10:21.233Z,20.85
2022-07-26T05:11:21.233Z,20.87
2022-07-26T05:12:21.223Z,20.85
2022-07-26T05:13:31.152Z,20.85
2022-07-26T05:14:21.216Z,20.85
2022-07-26T05:15:21.222Z,20.92
2022-07-26T05:16:21.242Z,20.97
2022-07-26T05:17:21.320Z,21.01
2022-07-26T05:18:49.087Z,21.04
2022-07-26T05:19:49.303Z,21.07
2022-07-26T05:20:21.222Z,21.05
2022-07-26T05:21:21.247Z,21.05
2022-07-26T05:22:21.221Z,21.05
2022-07-26T05:23:21.226Z,21.05
2022-07-26T05:24:24.676Z,21.02
2022-07-26T05:25:21.234Z,21.06
2022-07-26T05:26:59.986Z,21.11
2022-07-26T05:27:21.226Z,21.11
2022-07-26T05:28:33.747Z,21.13
2022-07-26T05:29:21.226Z,21.16
2022-07-26T05:30:21.230Z,21.18
2022-07-26T05:31:21.295Z,21.18
2022-07-26T05:32:21.230Z,21.18
2022-07-26T05:33:21.411Z,21.2
2022-07-26T05:34:54.782Z,21.2
2022-07-26T05:35:21.239Z,21.17
2022-07-26T05:36:21.239Z,21.16
2022-07-26T05:37:21.224Z,21.16
2022-07-26T05:38:21.224Z,21.22
2022-07-26T05:39:21.229Z,21.23
2022-07-26T05:40:21.244Z,21.23
2022-07-26T05:41:21.237Z,21.23
2022-07-26T05:42:21.229Z,21.25
2022-07-26T05:43:21.224Z,21.25
2022-07-26T05:44:21.240Z,21.28
2022-07-26T05:45:38.397Z,21.32
2022-07-26T05:46:21.304Z,21.37
2022-07-26T05:47:21.234Z,21.36
2022-07-26T05:48:21.225Z,21.34
2022-07-26T05:49:21.225Z,21.35
2022-07-26T05:50:21.276Z,21.35
2022-07-26T05:51:21.232Z,21.35
2022-07-26T05:52:21.281Z,21.4
2022-07-26T05:53:21.230Z,21.4
2022-07-26T05:54:22.946Z,21.4
2022-07-26T05:55:21.257Z,21.34
2022-07-26T05:56:21.234Z,21.33
2022-07-26T05:57:36.800Z,21.31
2022-07-26T05:58:21.224Z,21.31
2022-07-26T05:59:21.229Z,21.31
2022-07-26T06:00:26.800Z,21.32
2022-07-26T06:01:21.252Z,21.39
2022-07-26T06:02:21.343Z,21.44
2022-07-26T06:03:47.859Z,21.42
2022-07-26T06:04:21.332Z,21.48
2022-07-26T06:05:21.224Z,21.49
2022-07-26T06:06:21.234Z,21.53
2022-07-26T06:07:21.240Z,21.53
2022-07-26T06:08:21.243Z,21.53
2022-07-26T06:09:21.266Z,21.56
2022-07-26T06:10:21.249Z,21.56
2022-07-26T06:11:21.249Z,21.57
2022-07-26T06:12:21.226Z,21.56
2022-07-26T06:13:21.233Z,21.58
2022-07-26T06:15:01.007Z,21.58
2022-07-26T06:15:43.716Z,21.58
2022-07-26T06:16:21.252Z,21.52
2022-07-26T06:18:03.859Z,21.52
2022-07-26T06:18:21.228Z,21.52
2022-07-26T06:19:21.226Z,21.48
2022-07-26T06:20:43.142Z,21.52
2022-07-26T06:21:21.247Z,21.56
2022-07-26T06:22:48.405Z,21.55
2022-07-26T06:23:34.352Z,21.52
2022-07-26T06:24:21.228Z,21.46
2022-07-26T06:25:21.239Z,21.44
2022-07-26T06:26:21.270Z,21.46
2022-07-26T06:27:21.249Z,21.46
2022-07-26T06:28:21.258Z,21.51
2022-07-26T06:29:21.237Z,21.51
2022-07-26T06:30:21.253Z,21.59
2022-07-26T06:31:21.308Z,21.62
2022-07-26T06:32:21.240Z,21.59
2022-07-26T06:33:21.235Z,21.63
2022-07-26T06:34:21.238Z,21.73
2022-07-26T06:35:21.226Z,21.8
2022-07-26T06:37:18.653Z,21.85
2022-07-26T06:37:21.112Z,21.85
2022-07-26T06:38:21.226Z,21.85
2022-07-26T06:39:32.722Z,21.89
2022-07-26T06:40:21.235Z,21.89
2022-07-26T06:41:21.222Z,21.89
2022-07-26T06:42:21.252Z,21.84
2022-07-26T06:43:21.232Z,21.84
2022-07-26T06:44:21.281Z,21.9
2022-07-26T06:45:21.237Z,21.79
2022-07-26T06:46:21.631Z,21.79
2022-07-26T06:47:21.243Z,21.75
2022-07-26T06:48:21.237Z,21.75
2022-07-26T06:49:22.857Z,21.86
2022-07-26T06:50:25.539Z,21.86
2022-07-26T06:51:21.221Z,21.9
2022-07-26T06:52:21.238Z,21.9
2022-07-26T06:53:48.215Z,21.9
2022-07-26T06:54:21.233Z,22.02
2022-07-26T06:55:21.240Z,22.03
2022-07-26T06:56:21.232Z,22.03
2022-07-26T06:57:26.488Z,22.03
2022-07-26T06:58:21.229Z,21.98
2022-07-26T06:59:21.225Z,22.08
2022-07-26T07:00:21.227Z,22.21
2022-07-26T07:01:58.660Z,22.35
2022-07-26T07:02:21.230Z,22.35
2022-07-26T07:03:21.237Z,22.47
2022-07-26T07:04:51.625Z,22.47
2022-07-26T07:05:21.309Z,22.47
2022-07-26T07:06:21.235Z,22.55
2022-07-26T07:07:21.224Z,22.55
2022-07-26T07:08:21.236Z,22.59
2022-07-26T07:09:21.223Z,22.51
2022-07-26T07:10:23.751Z,22.46
2022-07-26T07:11:21.211Z,22.46
2022-07-26T07:12:21.214Z,22.48
2022-07-26T07:13:21.238Z,22.5
2022-07-26T07:14:21.229Z,22.56
2022-07-26T07:15:21.216Z,22.56
2022-07-26T07:16:48.939Z,22.59
2022-07-26T07:17:41.231Z,22.59
2022-07-26T07:18:21.195Z,22.57
2022-07-26T07:19:21.224Z,22.62
2022-07-26T07:20:21.248Z,22.7
2022-07-26T07:21:21.245Z,22.65
2022-07-26T07:22:21.863Z,22.65
2022-07-26T07:23:21.246Z,22.63
2022-07-26T07:24:21.218Z,22.63
2022-07-26T07:25:25.750Z,22.83
2022-07-26T07:26:21.246Z,22.86
2022-07-26T07:27:21.239Z,22.95
2022-07-26T07:28:21.229Z,23.06
2022-07-26T07:29:21.224Z,23.21
2022-07-26T07:30:57.447Z,23.35
2022-07-26T07:31:23.615Z,23.35
2022-07-26T07:32:28.533Z,23.66
2022-07-26T07:33:22.810Z,23.77
2022-07-26T07:35:02.412Z,23.77
2022-07-26T07:35:21.226Z,23.77
2022-07-26T07:36:21.232Z,24
2022-07-26T07:37:21.236Z,24
2022-07-26T07:38:22.514Z,23.93
2022-07-26T07:40:01.423Z,23.93
2022-07-26T07:40:21.262Z,24
2022-07-26T07:41:21.239Z,24.11
2022-07-26T07:42:21.241Z,24.15
2022-07-26T07:43:21.235Z,24.25
2022-07-26T07:44:21.236Z,24.25
2022-07-26T07:45:21.231Z,24.4
2022-07-26T07:46:21.294Z,24.4
2022-07-26T07:47:21.233Z,24.4
2022-07-26T07:48:21.238Z,24.64
2022-07-26T07:49:56.116Z,24.68
2022-07-26T07:50:21.350Z,24.68
2022-07-26T07:51:21.229Z,24.68
2022-07-26T07:52:21.271Z,24.67
2022-07-26T07:53:21.225Z,24.75
2022-07-26T07:54:22.270Z,24.92
2022-07-26T07:55:36.403Z,24.92
2022-07-26T07:56:21.267Z,25.01
2022-07-26T07:57:21.238Z,25.06
2022-07-26T07:58:21.228Z,25.14
2022-07-26T07:59:22.781Z,25.3
2022-07-26T08:00:27.283Z,25.3
2022-07-26T08:01:21.315Z,25.29
2022-07-26T08:02:21.235Z,25.29
2022-07-26T08:03:21.221Z,25.3
2022-07-26T08:04:21.263Z,25.3
2022-07-26T08:05:21.620Z,25.25
2022-07-26T08:06:21.221Z,25.23
2022-07-26T08:07:21.257Z,25.23
2022-07-26T08:08:22.639Z,25.09
2022-07-26T08:09:21.227Z,24.75
2022-07-26T08:10:21.288Z,24.67
2022-07-26T08:11:22.887Z,24.67
2022-07-26T08:12:21.233Z,24.67
2022-07-26T08:13:21.646Z,24.95
2022-07-26T08:15:36.766Z,25.01
2022-07-26T08:15:39.343Z,25.01
2022-07-26T08:16:34.723Z,24.87
2022-07-26T08:17:21.246Z,24.97
2022-07-26T08:18:22.303Z,25.04
2022-07-26T08:19:50.544Z,25
2022-07-26T08:20:22.880Z,25
2022-07-26T08:21:21.230Z,24.73
2022-07-26T08:22:24.311Z,24.67
2022-07-26T08:23:21.245Z,24.67
2022-07-26T08:24:21.232Z,24.55
2022-07-26T08:25:21.249Z,24.55
2022-07-26T08:26:21.226Z,24.44
2022-07-26T08:27:21.233Z,24.48
2022-07-26T08:28:45.227Z,24.48
2022-07-26T08:29:31.618Z,24.48
2022-07-26T08:30:21.224Z,24.27
2022-07-26T08:31:34.822Z,24.19
2022-07-26T08:32:21.243Z,24.15
2022-07-26T08:33:21.225Z,24.26
2022-07-26T08:34:21.221Z,24.34
2022-07-26T08:35:21.220Z,24.46
2022-07-26T08:36:21.225Z,24.51
2022-07-26T08:37:21.238Z,24.56
2022-07-26T08:38:21.233Z,24.7
2022-07-26T08:39:44.991Z,24.79
2022-07-26T08:40:36.060Z,24.83
2022-07-26T08:41:21.221Z,24.75
2022-07-26T08:42:22.502Z,24.74
2022-07-26T08:43:21.229Z,24.78
2022-07-26T08:44:21.228Z,24.62
2022-07-26T08:45:21.223Z,24.46
2022-07-26T08:46:26.371Z,24.47
2022-07-26T08:47:37.567Z,24.54
2022-07-26T08:48:21.232Z,24.53
2022-07-26T08:49:21.323Z,24.55
2022-07-26T08:50:21.232Z,24.54
2022-07-26T08:51:21.223Z,24.54
2022-07-26T08:52:21.232Z,24.67
2022-07-26T08:53:21.238Z,24.97
2022-07-26T08:54:21.224Z,24.76
2022-07-26T08:55:21.222Z,24.9
2022-07-26T08:56:26.315Z,24.9
2022-07-26T08:57:37.869Z,24.86
2022-07-26T08:58:21.233Z,24.83
2022-07-26T08:59:57.827Z,24.9
2022-07-26T09:00:21.239Z,24.9
2022-07-26T09:01:21.381Z,24.78
2022-07-26T09:02:55.600Z,24.68
2022-07-26T09:03:21.293Z,24.68
2022-07-26T09:04:31.510Z,24.8
2022-07-26T09:05:21.228Z,24.68
2022-07-26T09:06:21.230Z,24.63
2022-07-26T09:07:45.129Z,24.63
2022-07-26T09:08:21.235Z,24.67
2022-07-26T09:09:21.261Z,24.78
2022-07-26T09:10:21.251Z,24.78
2022-07-26T09:11:21.221Z,24.67
2022-07-26T09:12:21.229Z,24.67
2022-07-26T09:13:21.243Z,24.46
2022-07-26T09:14:21.253Z,24.46
2022-07-26T09:15:52.462Z,24.39
2022-07-26T09:16:25.548Z,24.39
2022-07-26T09:17:39.226Z,24.41
2022-07-26T09:18:21.226Z,24.41
2022-07-26T09:19:21.237Z,24.69
2022-07-26T09:20:24.277Z,24.57
2022-07-26T09:21:21.225Z,24.45
2022-07-26T09:22:21.230Z,24.48
2022-07-26T09:23:21.276Z,24.48
2022-07-26T09:24:21.233Z,24.46
2022-07-26T09:25:21.230Z,24.49
2022-07-26T09:26:21.237Z,24.49
2022-07-26T09:27:33.057Z,24.49
2022-07-26T09:28:21.243Z,24.55
2022-07-26T09:29:21.239Z,24.55
2022-07-26T09:30:21.227Z,24.75
2022-07-26T09:31:21.382Z,24.72
2022-07-26T09:32:21.222Z,24.65
2022-07-26T09:33:21.225Z,24.52
2022-07-26T09:34:21.263Z,24.52
2022-07-26T09:35:45.350Z,24.63
2022-07-26T09:36:21.233Z,24.82
2022-07-26T09:37:21.243Z,24.82
2022-07-26T09:38:21.232Z,24.82
2022-07-26T09:39:33.692Z,25.02
2022-07-26T09:40:21.227Z,24.84
2022-07-26T09:41:44.636Z,24.84
2022-07-26T09:42:27.518Z,24.88
2022-07-26T09:43:23.926Z,25.06
2022-07-26T09:44:21.257Z,24.93
2022-07-26T09:45:21.267Z,24.94
2022-07-26T09:46:21.301Z,25.09
2022-07-26T09:47:21.234Z,25.15
2022-07-26T09:48:21.238Z,25.21
2022-07-26T09:49:21.281Z,25.33
2022-07-26T09:50:21.402Z,25.5
2022-07-26T09:51:21.226Z,25.53
2022-07-26T09:52:21.222Z,25.62
2022-07-26T09:53:25.284Z,25.59
2022-07-26T09:54:21.248Z,25.59
2022-07-26T09:55:21.227Z,25.44
2022-07-26T09:56:21.332Z,25.44
2022-07-26T09:57:42.601Z,25.34
2022-07-26T09:58:21.247Z,25.11
2022-07-26T09:59:21.658Z,25.14
2022-07-26T10:00:21.256Z,25.14
2022-07-26T10:01:21.292Z,24.98
2022-07-26T10:02:21.234Z,24.98
2022-07-26T10:03:21.227Z,24.84
2022-07-26T10:04:21.255Z,24.83
2022-07-26T10:05:21.222Z,24.83
2022-07-26T10:06:32.459Z,24.7
2022-07-26T10:07:21.220Z,24.61
2022-07-26T10:09:02.791Z,24.59
2022-07-26T10:09:21.237Z,24.59
2022-07-26T10:10:21.236Z,24.53
2022-07-26T10:11:21.230Z,24.55
2022-07-26T10:12:21.239Z,24.5
2022-07-26T10:13:21.243Z,24.38
2022-07-26T10:14:21.385Z,24.38
2022-07-26T10:15:21.245Z,24.34
2022-07-26T10:16:35.500Z,24.38
2022-07-26T10:17:21.232Z,24.54
2022-07-26T10:18:21.235Z,24.59
2022-07-26T10:19:21.249Z,24.53
2022-07-26T10:20:24.430Z,24.55
2022-07-26T10:21:21.225Z,24.52
2022-07-26T10:22:21.245Z,24.54
2022-07-26T10:23:21.230Z,24.55
2022-07-26T10:24:21.296Z,24.51
2022-07-26T10:25:21.230Z,24.57
2022-07-26T10:26:21.234Z,24.64
2022-07-26T10:27:21.224Z,24.72
2022-07-26T10:28:23.121Z,24.72
2022-07-26T10:29:21.899Z,24.9
2022-07-26T10:30:21.225Z,24.9
2022-07-26T10:31:21.340Z,25.07
2022-07-26T10:32:21.225Z,25.17
2022-07-26T10:33:21.237Z,25.17
2022-07-26T10:34:25.012Z,24.92
2022-07-26T10:35:21.226Z,24.92
2022-07-26T10:36:40.083Z,24.69
2022-07-26T10:37:21.240Z,24.6
2022-07-26T10:38:21.225Z,24.48
2022-07-26T10:39:21.229Z,24.52
2022-07-26T10:40:21.305Z,24.56
2022-07-26T10:41:33.790Z,24.61
2022-07-26T10:42:21.227Z,24.57
2022-07-26T10:43:40.024Z,24.63
2022-07-26T10:44:21.245Z,24.68
2022-07-26T10:45:21.234Z,24.68
2022-07-26T10:46:21.304Z,24.66
2022-07-26T10:47:21.224Z,24.76
2022-07-26T10:48:31.862Z,24.76
2022-07-26T10:49:21.228Z,24.71
2022-07-26T10:50:29.243Z,24.71
2022-07-26T10:51:22.013Z,24.67
2022-07-26T10:52:21.240Z,24.67
2022-07-26T10:53:21.244Z,24.52
2022-07-26T10:54:30.386Z,24.52
2022-07-26T10:55:21.250Z,24.54
2022-07-26T10:56:21.235Z,24.54
2022-07-26T10:57:21.235Z,24.76
2022-07-26T10:58:21.233Z,24.76
2022-07-26T10:59:53.258Z,24.76
2022-07-26T11:00:21.239Z,25.51
2022-07-26T11:01:21.350Z,25.51
2022-07-26T11:02:21.303Z,26.13
2022-07-26T11:03:29.324Z,26.13
2022-07-26T11:04:21.269Z,26.55
2022-07-26T11:05:21.239Z,26.55
2022-07-26T11:06:21.223Z,26.63
2022-07-26T11:07:21.227Z,26.58
2022-07-26T11:08:21.222Z,26.59
2022-07-26T11:09:21.447Z,26.45
2022-07-26T11:10:33.417Z,26.45
2022-07-26T11:11:21.230Z,26.18
2022-07-26T11:12:21.243Z,26.18
2022-07-26T11:13:21.230Z,25.7
2022-07-26T11:14:21.228Z,25.61
2022-07-26T11:15:21.262Z,25.61
2022-07-26T11:16:21.385Z,25.41
2022-07-26T11:17:21.240Z,25.41
2022-07-26T11:19:00.757Z,25.41
2022-07-26T11:19:21.227Z,25.29
2022-07-26T11:20:22.028Z,25.17
2022-07-26T11:21:21.249Z,25.19
2022-07-26T11:22:21.231Z,25.13
2022-07-26T11:23:21.240Z,25.13
2022-07-26T11:24:37.642Z,25
2022-07-26T11:25:21.225Z,25.12
2022-07-26T11:26:21.242Z,25.12
2022-07-26T11:27:21.235Z,24.97
2022-07-26T11:28:21.241Z,24.97
2022-07-26T11:29:40.516Z,24.97
2022-07-26T11:30:21.136Z,25.01
2022-07-26T11:31:21.419Z,25.05
2022-07-26T11:32:21.925Z,25.05
2022-07-26T11:33:21.243Z,25.2
2022-07-26T11:34:21.249Z,25.2
2022-07-26T11:35:21.290Z,25.34
2022-07-26T11:36:21.233Z,25.45
2022-07-26T11:37:25.601Z,25.45
2022-07-26T11:38:21.219Z,25.33
2022-07-26T11:39:21.242Z,25.33
2022-07-26T11:40:21.224Z,25.33
2022-07-26T11:41:21.234Z,25.64
2022-07-26T11:42:21.220Z,25.64
2022-07-26T11:43:21.240Z,26.03
2022-07-26T11:44:21.222Z,26.03
2022-07-26T11:45:21.243Z,26.03
2022-07-26T11:46:21.328Z,26.49
2022-07-26T11:47:21.218Z,26.62
2022-07-26T11:48:21.240Z,26.62
2022-07-26T11:49:22.915Z,26.71
2022-07-26T11:50:23.163Z,26.69
2022-07-26T11:51:21.237Z,26.69
2022-07-26T11:52:25.475Z,26.42
2022-07-26T11:53:21.230Z,26.32
2022-07-26T11:54:21.227Z,26.32
2022-07-26T11:55:21.219Z,26.1
2022-07-26T11:56:21.241Z,26.1
2022-07-26T11:57:21.232Z,26.12
2022-07-26T11:58:21.226Z,26.09
2022-07-26T11:59:21.231Z,25.91
2022-07-26T12:00:21.229Z,25.91
2022-07-26T12:01:21.245Z,25.96
2022-07-26T12:02:21.238Z,25.84
2022-07-26T12:03:41.311Z,25.75
2022-07-26T12:04:21.344Z,25.78
2022-07-26T12:05:38.760Z,25.78
2022-07-26T12:06:21.242Z,25.55
2022-07-26T12:07:42.013Z,25.55
2022-07-26T12:08:21.553Z,25.44
2022-07-26T12:09:21.223Z,25.44
2022-07-26T12:10:21.221Z,25.61
2022-07-26T12:11:21.257Z,25.61
2022-07-26T12:13:13.499Z,25.61
2022-07-26T12:13:21.263Z,25.61
2022-07-26T12:14:21.613Z,25.33
2022-07-26T12:16:27.958Z,25.27
2022-07-26T12:16:28.157Z,25.27
2022-07-26T12:18:31.216Z,25.38
2022-07-26T12:18:31.389Z,25.42
2022-07-26T12:19:46.552Z,25.43
2022-07-26T12:20:21.217Z,25.42
2022-07-26T12:21:21.719Z,25.44
2022-07-26T12:22:21.210Z,25.44
2022-07-26T12:23:21.215Z,25.29
2022-07-26T12:24:21.209Z,25.29
2022-07-26T12:25:25.979Z,25.14
2022-07-26T12:26:21.254Z,25.09
2022-07-26T12:27:21.221Z,25.09
2022-07-26T12:28:21.228Z,25.09
2022-07-26T12:29:21.242Z,25.09
2022-07-26T12:30:21.240Z,25.15
2022-07-26T12:31:21.336Z,25.29
2022-07-26T12:32:21.242Z,25.34
2022-07-26T12:33:21.234Z,25.34
2022-07-26T12:34:21.222Z,25.46
2022-07-26T12:35:21.222Z,25.35
2022-07-26T12:36:27.841Z,25.35
2022-07-26T12:37:28.951Z,25.26
2022-07-26T12:38:21.231Z,25.26
2022-07-26T12:39:21.222Z,25.29
2022-07-26T12:40:28.683Z,25.31
2022-07-26T12:41:21.592Z,25.37
2022-07-26T12:42:33.242Z,25.37
2022-07-26T12:43:21.238Z,25.38
2022-07-26T12:44:21.240Z,25.49
2022-07-26T12:45:21.231Z,25.51
2022-07-26T12:46:21.264Z,25.41
2022-07-26T12:47:21.243Z,25.41
2022-07-26T12:48:21.238Z,25.34
2022-07-26T12:49:21.795Z,25.39
2022-07-26T12:50:33.445Z,24.97
2022-07-26T12:51:21.238Z,24.97
2022-07-26T12:52:21.228Z,24.97
2022-07-26T12:53:21.228Z,25.5
2022-07-26T12:54:22.636Z,25.45
2022-07-26T12:55:21.213Z,25.44
2022-07-26T12:56:21.242Z,25.51